sensor_id;sensor_type;location;lat;lon;timestamp;pressure;altitude;pressure_sealevel;temperature;humidity
2785;BME280;57944;48.722;9.316;2023-09-08T00:01:55;98303.88;;;14.03;100.00
2785;BME280;57944;48.722;9.316;2023-09-08T00:04:26;98314.09;;;14.09;100.00
2785;BME280;57944;48.722;9.316;2023-09-08T00:06:57;98314.47;;;14.13;100.00
2785;BME280;57944;48.722;9.316;2023-09-08T00:09:30;98307.56;;;14.14;100.00
2785;BME280;57944;48.722;9.316;2023-09-08T00:12:01;98305.06;;;14.07;100.00
2785;BME280;57944;48.722;9.316;2023-09-08T00:14:31;98308.06;;;13.97;100.00
2785;BME280;57944;48.722;9.316;2023-09-08T00:17:02;98301.53;;;14.01;100.00
2785;BME280;57944;48.722;9.316;2023-09-08T00:19:35;98305.50;;;13.97;100.00
2785;BME280;57944;48.722;9.316;2023-09-08T00:22:06;98297.44;;;13.87;100.00
2785;BME280;57944;48.722;9.316;2023-09-08T00:24:39;98298.88;;;13.83;100.00
2785;BME280;57944;48.722;9.316;2023-09-08T00:27:10;98298.28;;;13.81;100.00
2785;BME280;57944;48.722;9.316;2023-09-08T00:29:40;98300.22;;;13.85;100.00
2785;BME280;57944;48.722;9.316;2023-09-08T00:32:11;98299.44;;;13.85;100.00
2785;BME280;57944;48.722;9.316;2023-09-08T00:34:44;98298.88;;;13.83;100.00
2785;BME280;57944;48.722;9.316;2023-09-08T00:37:14;98289.44;;;13.70;100.00
2785;BME280;57944;48.722;9.316;2023-09-08T00:39:48;98298.31;;;13.68;100.00
2785;BME280;57944;48.722;9.316;2023-09-08T00:42:18;98295.56;;;13.69;100.00
2785;BME280;57944;48.722;9.316;2023-09-08T00:44:49;98296.78;;;13.67;100.00
2785;BME280;57944;48.722;9.316;2023-09-08T00:47:23;98298.72;;;13.64;100.00
2785;BME280;57944;48.722;9.316;2023-09-08T00:49:53;98295.19;;;13.66;100.00
2785;BME280;57944;48.722;9.316;2023-09-08T00:52:24;98295.41;;;13.64;100.00
2785;BME280;57944;48.722;9.316;2023-09-08T00:55:01;98299.94;;;13.62;100.00
2785;BME280;57944;48.722;9.316;2023-09-08T00:57:32;98298.97;;;13.56;100.00
2785;BME280;57944;48.722;9.316;2023-09-08T01:00:03;98302.72;;;13.54;100.00
2785;BME280;57944;48.722;9.316;2023-09-08T01:02:35;98294.84;;;13.55;100.00
2785;BME280;57944;48.722;9.316;2023-09-08T01:05:06;98291.50;;;13.55;100.00
2785;BME280;57944;48.722;9.316;2023-09-08T01:07:37;98286.19;;;13.50;100.00
2785;BME280;57944;48.722;9.316;2023-09-08T01:10:12;98292.09;;;13.50;100.00
2785;BME280;57944;48.722;9.316;2023-09-08T01:12:43;98298.81;;;13.45;100.00
2785;BME280;57944;48.722;9.316;2023-09-08T01:15:13;98299.03;;;13.36;100.00
2785;BME280;57944;48.722;9.316;2023-09-08T01:17:44;98302.97;;;13.39;100.00
2785;BME280;57944;48.722;9.316;2023-09-08T01:20:19;98299.63;;;13.38;100.00
2785;BME280;57944;48.722;9.316;2023-09-08T01:23:03;98305.53;;;13.39;100.00
2785;BME280;57944;48.722;9.316;2023-09-08T01:25:49;98300.03;;;13.35;100.00
2785;BME280;57944;48.722;9.316;2023-09-08T01:28:21;98301.81;;;13.35;100.00
2785;BME280;57944;48.722;9.316;2023-09-08T01:30:53;98299.25;;;13.28;100.00
2785;BME280;57944;48.722;9.316;2023-09-08T01:33:25;98301.44;;;13.18;100.00
2785;BME280;57944;48.722;9.316;2023-09-08T01:35:56;98305.38;;;13.21;100.00
2785;BME280;57944;48.722;9.316;2023-09-08T01:38:26;98303.59;;;13.28;100.00
2785;BME280;57944;48.722;9.316;2023-09-08T01:41:01;98298.47;;;13.28;100.00
2785;BME280;57944;48.722;9.316;2023-09-08T01:43:32;98301.25;;;13.26;100.00
2785;BME280;57944;48.722;9.316;2023-09-08T01:46:05;98298.25;;;13.23;100.00
2785;BME280;57944;48.722;9.316;2023-09-08T01:48:35;98295.91;;;13.21;100.00
2785;BME280;57944;48.722;9.316;2023-09-08T01:51:06;98288.22;;;13.21;100.00
2785;BME280;57944;48.722;9.316;2023-09-08T01:53:36;98288.63;;;13.18;100.00
2785;BME280;57944;48.722;9.316;2023-09-08T01:56:10;98288.22;;;13.14;100.00
2785;BME280;57944;48.722;9.316;2023-09-08T01:58:40;98280.75;;;13.06;100.00
2785;BME280;57944;48.722;9.316;2023-09-08T02:01:11;98283.72;;;13.03;100.00
2785;BME280;57944;48.722;9.316;2023-09-08T02:03:42;98288.25;;;13.08;100.00
2785;BME280;57944;48.722;9.316;2023-09-08T02:06:12;98285.88;;;13.06;100.00
2785;BME280;57944;48.722;9.316;2023-09-08T02:08:43;98281.16;;;13.03;100.00
2785;BME280;57944;48.722;9.316;2023-09-08T02:11:19;98274.88;;;12.92;100.00
2785;BME280;57944;48.722;9.316;2023-09-08T02:13:50;98285.94;;;12.93;100.00
2785;BME280;57944;48.722;9.316;2023-09-08T02:16:24;98281.97;;;12.97;100.00
2785;BME280;57944;48.722;9.316;2023-09-08T02:18:56;98289.44;;;12.92;100.00
2785;BME280;57944;48.722;9.316;2023-09-08T02:21:27;98284.53;;;12.90;100.00
2785;BME280;57944;48.722;9.316;2023-09-08T02:23:58;98284.13;;;12.87;100.00
2785;BME280;57944;48.722;9.316;2023-09-08T02:26:31;98282.97;;;12.83;100.00
2785;BME280;57944;48.722;9.316;2023-09-08T02:29:02;98282.59;;;12.79;100.00
2785;BME280;57944;48.722;9.316;2023-09-08T02:31:33;98272.56;;;12.78;100.00
2785;BME280;57944;48.722;9.316;2023-09-08T02:34:06;98279.63;;;12.75;100.00
2785;BME280;57944;48.722;9.316;2023-09-08T02:36:37;98286.72;;;12.73;100.00
2785;BME280;57944;48.722;9.316;2023-09-08T02:39:08;98284.75;;;12.75;100.00
2785;BME280;57944;48.722;9.316;2023-09-08T02:41:41;98279.81;;;12.67;100.00
2785;BME280;57944;48.722;9.316;2023-09-08T02:44:12;98284.56;;;12.64;100.00
2785;BME280;57944;48.722;9.316;2023-09-08T02:46:43;98281.63;;;12.60;100.00
2785;BME280;57944;48.722;9.316;2023-09-08T02:49:14;98280.81;;;12.53;100.00
2785;BME280;57944;48.722;9.316;2023-09-08T02:51:45;98285.72;;;12.48;100.00
2785;BME280;57944;48.722;9.316;2023-09-08T02:54:15;98282.00;;;12.44;100.00
2785;BME280;57944;48.722;9.316;2023-09-08T02:56:48;98286.72;;;12.47;100.00
2785;BME280;57944;48.722;9.316;2023-09-08T02:59:19;98278.06;;;12.48;100.00
2785;BME280;57944;48.722;9.316;2023-09-08T03:01:49;98282.38;;;12.47;100.00
2785;BME280;57944;48.722;9.316;2023-09-08T03:04:23;98281.59;;;12.34;100.00
2785;BME280;57944;48.722;9.316;2023-09-08T03:06:54;98277.28;;;12.27;100.00
2785;BME280;57944;48.722;9.316;2023-09-08T03:09:25;98289.66;;;12.30;100.00
2785;BME280;57944;48.722;9.316;2023-09-08T03:11:58;98286.13;;;12.32;100.00
2785;BME280;57944;48.722;9.316;2023-09-08T03:14:28;98289.06;;;12.35;100.00
2785;BME280;57944;48.722;9.316;2023-09-08T03:16:59;98291.03;;;12.26;100.00
2785;BME280;57944;48.722;9.316;2023-09-08T03:19:30;98286.31;;;12.23;100.00
2785;BME280;57944;48.722;9.316;2023-09-08T03:22:01;98284.72;;;12.22;100.00
2785;BME280;57944;48.722;9.316;2023-09-08T03:24:32;98279.63;;;12.22;100.00
2785;BME280;57944;48.722;9.316;2023-09-08T03:27:05;98289.25;;;12.20;100.00
2785;BME280;57944;48.722;9.316;2023-09-08T03:29:36;98281.38;;;12.15;100.00
2785;BME280;57944;48.722;9.316;2023-09-08T03:32:06;98277.25;;;12.14;100.00
2785;BME280;57944;48.722;9.316;2023-09-08T03:34:39;98283.72;;;12.17;100.00
2785;BME280;57944;48.722;9.316;2023-09-08T03:37:10;98278.84;;;12.15;100.00
2785;BME280;57944;48.722;9.316;2023-09-08T03:39:43;98278.03;;;12.01;100.00
2785;BME280;57944;48.722;9.316;2023-09-08T03:42:16;98277.81;;;11.96;100.00
2785;BME280;57944;48.722;9.316;2023-09-08T03:44:47;98282.53;;;11.93;100.00
2785;BME280;57944;48.722;9.316;2023-09-08T03:47:17;98282.53;;;11.93;100.00
2785;BME280;57944;48.722;9.316;2023-09-08T03:49:48;98279.16;;;11.92;100.00
2785;BME280;57944;48.722;9.316;2023-09-08T03:52:19;98278.97;;;11.94;100.00
2785;BME280;57944;48.722;9.316;2023-09-08T03:54:50;98280.34;;;11.90;100.00
2785;BME280;57944;48.722;9.316;2023-09-08T03:57:23;98283.06;;;11.81;100.00
2785;BME280;57944;48.722;9.316;2023-09-08T03:59:54;98285.38;;;11.76;100.00
2785;BME280;57944;48.722;9.316;2023-09-08T04:02:25;98282.84;;;11.76;100.00
2785;BME280;57944;48.722;9.316;2023-09-08T04:04:56;98288.91;;;11.75;100.00
2785;BME280;57944;48.722;9.316;2023-09-08T04:07:27;98286.94;;;11.77;100.00
2785;BME280;57944;48.722;9.316;2023-09-08T04:09:57;98290.94;;;11.87;100.00
2785;BME280;57944;48.722;9.316;2023-09-08T04:12:30;98287.78;;;11.84;100.00
2785;BME280;57944;48.722;9.316;2023-09-08T04:15:01;98290.50;;;11.83;100.00
2785;BME280;57944;48.722;9.316;2023-09-08T04:17:32;98291.91;;;11.85;100.00
2785;BME280;57944;48.722;9.316;2023-09-08T04:20:05;98296.78;;;11.80;100.00
2785;BME280;57944;48.722;9.316;2023-09-08T04:22:36;98295.59;;;11.76;100.00
2785;BME280;57944;48.722;9.316;2023-09-08T04:25:07;98288.09;;;11.68;100.00
2785;BME280;57944;48.722;9.316;2023-09-08T04:27:40;98290.44;;;11.63;100.00
2785;BME280;57944;48.722;9.316;2023-09-08T04:30:13;98298.31;;;11.68;100.00
2785;BME280;57944;48.722;9.316;2023-09-08T04:32:44;98293.00;;;11.70;100.00
2785;BME280;57944;48.722;9.316;2023-09-08T04:35:15;98292.00;;;11.57;100.00
2785;BME280;57944;48.722;9.316;2023-09-08T04:37:45;98301.63;;;11.62;100.00
2785;BME280;57944;48.722;9.316;2023-09-08T04:40:16;98307.72;;;11.61;100.00
2785;BME280;57944;48.722;9.316;2023-09-08T04:42:50;98303.75;;;11.58;100.00
2785;BME280;57944;48.722;9.316;2023-09-08T04:45:22;98306.13;;;11.60;100.00
2785;BME280;57944;48.722;9.316;2023-09-08T04:47:52;98310.47;;;11.66;100.00
2785;BME280;57944;48.722;9.316;2023-09-08T04:50:23;98314.44;;;11.75;100.00
2785;BME280;57944;48.722;9.316;2023-09-08T04:52:54;98315.03;;;11.77;100.00
2785;BME280;57944;48.722;9.316;2023-09-08T04:55:26;98313.66;;;11.75;100.00
2785;BME280;57944;48.722;9.316;2023-09-08T04:57:59;98318.38;;;11.78;100.00
2785;BME280;57944;48.722;9.316;2023-09-08T05:00:30;98313.69;;;11.81;100.00
2785;BME280;57944;48.722;9.316;2023-09-08T05:03:02;98317.03;;;11.82;100.00
2785;BME280;57944;48.722;9.316;2023-09-08T05:05:33;98311.38;;;11.87;100.00
2785;BME280;57944;48.722;9.316;2023-09-08T05:08:04;98307.84;;;11.88;100.00
2785;BME280;57944;48.722;9.316;2023-09-08T05:10:35;98310.00;;;11.91;100.00
2785;BME280;57944;48.722;9.316;2023-09-08T05:13:08;98311.41;;;11.93;100.00
2785;BME280;57944;48.722;9.316;2023-09-08T05:15:57;98305.13;;;11.96;100.00
2785;BME280;57944;48.722;9.316;2023-09-08T05:18:47;98309.84;;;11.99;100.00
2785;BME280;57944;48.722;9.316;2023-09-08T05:21:18;98308.69;;;12.08;100.00
2785;BME280;57944;48.722;9.316;2023-09-08T05:23:49;98314.97;;;12.05;100.00
2785;BME280;57944;48.722;9.316;2023-09-08T05:26:20;98311.84;;;12.10;100.00
2785;BME280;57944;48.722;9.316;2023-09-08T05:28:53;98315.78;;;12.19;100.00
2785;BME280;57944;48.722;9.316;2023-09-08T05:31:24;98318.53;;;12.31;100.00
2785;BME280;57944;48.722;9.316;2023-09-08T05:33:54;98323.28;;;12.41;100.00
2785;BME280;57944;48.722;9.316;2023-09-08T05:36:26;98326.06;;;12.46;100.00
2785;BME280;57944;48.722;9.316;2023-09-08T05:38:58;98320.16;;;12.52;100.00
2785;BME280;57944;48.722;9.316;2023-09-08T05:41:30;98329.81;;;12.57;100.00
2785;BME280;57944;48.722;9.316;2023-09-08T05:44:05;98331.19;;;12.66;100.00
2785;BME280;57944;48.722;9.316;2023-09-08T05:46:36;98329.59;;;12.98;100.00
2785;BME280;57944;48.722;9.316;2023-09-08T05:49:07;98332.44;;;13.61;100.00
2785;BME280;57944;48.722;9.316;2023-09-08T05:51:39;98339.56;;;14.04;100.00
2785;BME280;57944;48.722;9.316;2023-09-08T05:54:10;98347.22;;;14.43;100.00
2785;BME280;57944;48.722;9.316;2023-09-08T05:56:41;98344.88;;;14.73;100.00
2785;BME280;57944;48.722;9.316;2023-09-08T05:59:15;98335.63;;;14.90;100.00
2785;BME280;57944;48.722;9.316;2023-09-08T06:01:45;98343.84;;;15.24;100.00
2785;BME280;57944;48.722;9.316;2023-09-08T06:04:16;98344.56;;;15.86;100.00
2785;BME280;57944;48.722;9.316;2023-09-08T06:06:47;98345.09;;;16.49;100.00
2785;BME280;57944;48.722;9.316;2023-09-08T06:09:17;98345.06;;;16.91;100.00
2785;BME280;57944;48.722;9.316;2023-09-08T06:11:48;98332.06;;;17.21;100.00
2785;BME280;57944;48.722;9.316;2023-09-08T06:14:21;98335.78;;;17.65;100.00
2785;BME280;57944;48.722;9.316;2023-09-08T06:16:52;98344.13;;;18.25;100.00
2785;BME280;57944;48.722;9.316;2023-09-08T06:19:22;98347.56;;;18.76;100.00
2785;BME280;57944;48.722;9.316;2023-09-08T06:21:53;98337.94;;;19.10;100.00
2785;BME280;57944;48.722;9.316;2023-09-08T06:24:24;98347.34;;;19.38;100.00
2785;BME280;57944;48.722;9.316;2023-09-08T06:26:54;98342.75;;;19.84;100.00
2785;BME280;57944;48.722;9.316;2023-09-08T06:29:28;98339.97;;;20.18;100.00
2785;BME280;57944;48.722;9.316;2023-09-08T06:31:59;98342.69;;;21.03;100.00
2785;BME280;57944;48.722;9.316;2023-09-08T06:34:30;98339.28;;;21.40;100.00
2785;BME280;57944;48.722;9.316;2023-09-08T06:37:03;98339.66;;;21.69;100.00
2785;BME280;57944;48.722;9.316;2023-09-08T06:39:34;98345.25;;;22.60;100.00
2785;BME280;57944;48.722;9.316;2023-09-08T06:42:05;98346.69;;;23.32;100.00
2785;BME280;57944;48.722;9.316;2023-09-08T06:44:39;98354.75;;;23.91;100.00
2785;BME280;57944;48.722;9.316;2023-09-08T06:47:10;98351.59;;;24.33;99.29
2785;BME280;57944;48.722;9.316;2023-09-08T06:49:41;98351.56;;;24.72;94.20
2785;BME280;57944;48.722;9.316;2023-09-08T06:52:11;98345.78;;;25.29;87.23
2785;BME280;57944;48.722;9.316;2023-09-08T06:54:42;98342.25;;;25.81;79.87
2785;BME280;57944;48.722;9.316;2023-09-08T06:57:13;98346.88;;;26.08;72.45
2785;BME280;57944;48.722;9.316;2023-09-08T06:59:46;98345.44;;;26.49;62.50
2785;BME280;57944;48.722;9.316;2023-09-08T07:02:17;98349.59;;;26.96;59.97
2785;BME280;57944;48.722;9.316;2023-09-08T07:04:48;98351.06;;;27.03;60.34
2785;BME280;57944;48.722;9.316;2023-09-08T07:07:19;98354.84;;;27.52;58.90
2785;BME280;57944;48.722;9.316;2023-09-08T07:09:50;98359.09;;;27.61;54.90
2785;BME280;57944;48.722;9.316;2023-09-08T07:12:21;98347.66;;;27.44;56.32
2785;BME280;57944;48.722;9.316;2023-09-08T07:14:54;98349.44;;;27.21;58.25
2785;BME280;57944;48.722;9.316;2023-09-08T07:17:25;98347.09;;;27.19;58.85
2785;BME280;57944;48.722;9.316;2023-09-08T07:19:56;98346.66;;;27.67;56.89
2785;BME280;57944;48.722;9.316;2023-09-08T07:22:26;98342.38;;;28.07;53.41
2785;BME280;57944;48.722;9.316;2023-09-08T07:24:57;98337.03;;;28.13;53.51
2785;BME280;57944;48.722;9.316;2023-09-08T07:27:28;98341.47;;;27.39;54.37
2785;BME280;57944;48.722;9.316;2023-09-08T07:30:01;98340.88;;;27.43;57.66
2785;BME280;57944;48.722;9.316;2023-09-08T07:32:36;98338.16;;;27.61;56.34
2785;BME280;57944;48.722;9.316;2023-09-08T07:35:07;98342.53;;;27.89;55.78
2785;BME280;57944;48.722;9.316;2023-09-08T07:37:43;98334.28;;;28.71;52.74
2785;BME280;57944;48.722;9.316;2023-09-08T07:40:16;98333.97;;;29.04;50.31
2785;BME280;57944;48.722;9.316;2023-09-08T07:42:47;98337.97;;;29.94;47.97
2785;BME280;57944;48.722;9.316;2023-09-08T07:45:21;98331.91;;;30.11;47.49
2785;BME280;57944;48.722;9.316;2023-09-08T07:47:52;98335.78;;;29.70;47.74
2785;BME280;57944;48.722;9.316;2023-09-08T07:50:24;98330.38;;;30.10;48.08
2785;BME280;57944;48.722;9.316;2023-09-08T07:52:56;98334.72;;;31.08;45.80
2785;BME280;57944;48.722;9.316;2023-09-08T07:55:27;98329.44;;;32.01;42.77
2785;BME280;57944;48.722;9.316;2023-09-08T07:57:58;98343.34;;;32.10;42.36
2785;BME280;57944;48.722;9.316;2023-09-08T08:00:31;98330.44;;;32.30;42.37
2785;BME280;57944;48.722;9.316;2023-09-08T08:03:02;98328.22;;;33.02;40.85
2785;BME280;57944;48.722;9.316;2023-09-08T08:05:33;98331.44;;;33.48;40.16
2785;BME280;57944;48.722;9.316;2023-09-08T08:08:04;98326.56;;;33.90;39.08
2785;BME280;57944;48.722;9.316;2023-09-08T08:10:37;98326.91;;;34.48;38.33
2785;BME280;57944;48.722;9.316;2023-09-08T08:13:07;98324.22;;;33.73;38.68
2785;BME280;57944;48.722;9.316;2023-09-08T08:15:44;98324.78;;;33.94;39.33
2785;BME280;57944;48.722;9.316;2023-09-08T08:18:15;98321.66;;;34.64;37.69
2785;BME280;57944;48.722;9.316;2023-09-08T08:20:46;98325.88;;;34.06;38.82
2785;BME280;57944;48.722;9.316;2023-09-08T08:23:16;98327.69;;;34.97;37.09
2785;BME280;57944;48.722;9.316;2023-09-08T08:25:48;98327.75;;;35.55;35.56
2785;BME280;57944;48.722;9.316;2023-09-08T08:28:19;98322.97;;;35.06;36.64
2785;BME280;57944;48.722;9.316;2023-09-08T08:30:52;98316.75;;;35.33;35.58
2785;BME280;57944;48.722;9.316;2023-09-08T08:33:23;98318.91;;;35.86;34.94
2785;BME280;57944;48.722;9.316;2023-09-08T08:35:54;98324.09;;;36.02;33.31
2785;BME280;57944;48.722;9.316;2023-09-08T08:38:24;98318.47;;;36.73;33.19
2785;BME280;57944;48.722;9.316;2023-09-08T08:40:54;98321.22;;;36.80;33.01
2785;BME280;57944;48.722;9.316;2023-09-08T08:43:25;98317.16;;;36.59;32.96
2785;BME280;57944;48.722;9.316;2023-09-08T08:46:00;98313.41;;;36.41;32.59
2785;BME280;57944;48.722;9.316;2023-09-08T08:48:33;98309.22;;;35.74;33.91
2785;BME280;57944;48.722;9.316;2023-09-08T08:51:05;98317.72;;;36.72;33.61
2785;BME280;57944;48.722;9.316;2023-09-08T08:53:37;98313.31;;;36.57;34.22
2785;BME280;57944;48.722;9.316;2023-09-08T08:56:10;98312.78;;;37.01;33.04
2785;BME280;57944;48.722;9.316;2023-09-08T08:58:41;98306.78;;;37.64;31.91
2785;BME280;57944;48.722;9.316;2023-09-08T09:01:16;98305.00;;;37.45;31.36
2785;BME280;57944;48.722;9.316;2023-09-08T09:03:50;98306.28;;;36.22;32.66
2785;BME280;57944;48.722;9.316;2023-09-08T09:06:22;98308.25;;;36.52;32.38
2785;BME280;57944;48.722;9.316;2023-09-08T09:08:52;98309.13;;;36.56;33.36
2785;BME280;57944;48.722;9.316;2023-09-08T09:11:23;98299.81;;;36.96;32.84
2785;BME280;57944;48.722;9.316;2023-09-08T09:13:53;98309.06;;;37.05;32.31
2785;BME280;57944;48.722;9.316;2023-09-08T09:16:26;98294.84;;;35.36;34.66
2785;BME280;57944;48.722;9.316;2023-09-08T09:18:58;98292.66;;;34.87;35.14
2785;BME280;57944;48.722;9.316;2023-09-08T09:21:42;98293.78;;;35.22;34.82
2785;BME280;57944;48.722;9.316;2023-09-08T09:24:17;98294.69;;;35.68;33.83
2785;BME280;57944;48.722;9.316;2023-09-08T09:26:58;98298.69;;;36.01;33.94
2785;BME280;57944;48.722;9.316;2023-09-08T09:29:29;98299.00;;;35.96;34.00
2785;BME280;57944;48.722;9.316;2023-09-08T09:32:06;98301.69;;;35.76;33.80
2785;BME280;57944;48.722;9.316;2023-09-08T09:34:48;98290.13;;;34.28;36.70
2785;BME280;57944;48.722;9.316;2023-09-08T09:37:21;98291.63;;;33.69;37.09
2785;BME280;57944;48.722;9.316;2023-09-08T09:39:52;98294.19;;;34.88;36.32
2785;BME280;57944;48.722;9.316;2023-09-08T09:42:23;98297.44;;;34.18;36.63
2785;BME280;57944;48.722;9.316;2023-09-08T09:44:54;98299.16;;;35.45;35.24
2785;BME280;57944;48.722;9.316;2023-09-08T09:47:27;98294.53;;;36.99;33.09
2785;BME280;57944;48.722;9.316;2023-09-08T09:49:58;98296.03;;;36.97;33.12
2785;BME280;57944;48.722;9.316;2023-09-08T09:52:30;98292.47;;;35.70;34.43
2785;BME280;57944;48.722;9.316;2023-09-08T09:55:00;98297.03;;;36.58;33.64
2785;BME280;57944;48.722;9.316;2023-09-08T09:57:32;98294.38;;;37.79;31.60
2785;BME280;57944;48.722;9.316;2023-09-08T10:00:04;98299.56;;;38.06;30.89
2785;BME280;57944;48.722;9.316;2023-09-08T10:02:39;98294.66;;;38.56;30.17
2785;BME280;57944;48.722;9.316;2023-09-08T10:05:11;98292.75;;;39.22;29.86
2785;BME280;57944;48.722;9.316;2023-09-08T10:07:43;98287.91;;;38.69;29.92
2785;BME280;57944;48.722;9.316;2023-09-08T10:10:14;98280.66;;;39.53;29.19
2785;BME280;57944;48.722;9.316;2023-09-08T10:12:46;98286.03;;;39.61;28.75
2785;BME280;57944;48.722;9.316;2023-09-08T10:15:22;98283.59;;;38.06;30.75
2785;BME280;57944;48.722;9.316;2023-09-08T10:17:57;98278.72;;;38.63;29.55
2785;BME280;57944;48.722;9.316;2023-09-08T10:20:28;98270.81;;;39.75;28.70
2785;BME280;57944;48.722;9.316;2023-09-08T10:23:31;98275.41;;;40.54;27.91
2785;BME280;57944;48.722;9.316;2023-09-08T10:26:08;98269.09;;;41.25;27.00
2785;BME280;57944;48.722;9.316;2023-09-08T10:28:39;98265.88;;;40.60;27.78
2785;BME280;57944;48.722;9.316;2023-09-08T10:31:10;98268.13;;;39.68;28.46
2785;BME280;57944;48.722;9.316;2023-09-08T10:33:45;98253.94;;;38.52;29.32
2785;BME280;57944;48.722;9.316;2023-09-08T10:36:16;98256.69;;;38.14;30.01
2785;BME280;57944;48.722;9.316;2023-09-08T10:38:47;98260.66;;;35.93;32.52
2785;BME280;57944;48.722;9.316;2023-09-08T10:41:29;98250.47;;;35.14;33.96
2785;BME280;57944;48.722;9.316;2023-09-08T10:44:02;98258.56;;;36.75;32.47
2785;BME280;57944;48.722;9.316;2023-09-08T10:46:34;98255.22;;;37.08;31.39
2785;BME280;57944;48.722;9.316;2023-09-08T10:49:08;98255.00;;;36.94;31.36
2785;BME280;57944;48.722;9.316;2023-09-08T10:51:40;98251.72;;;37.72;30.44
2785;BME280;57944;48.722;9.316;2023-09-08T10:54:12;98254.09;;;36.83;31.36
2785;BME280;57944;48.722;9.316;2023-09-08T10:57:07;98248.34;;;37.07;31.44
2785;BME280;57944;48.722;9.316;2023-09-08T10:59:45;98243.53;;;37.17;30.87
2785;BME280;57944;48.722;9.316;2023-09-08T11:02:42;98251.16;;;35.50;33.39
2785;BME280;57944;48.722;9.316;2023-09-08T11:05:21;98238.53;;;34.53;34.98
2785;BME280;57944;48.722;9.316;2023-09-08T11:07:51;98245.03;;;33.36;36.30
2785;BME280;57944;48.722;9.316;2023-09-08T11:10:23;98240.78;;;32.54;37.65
2785;BME280;57944;48.722;9.316;2023-09-08T11:12:54;98238.94;;;32.09;39.21
2785;BME280;57944;48.722;9.316;2023-09-08T11:15:25;98240.69;;;32.05;39.58
2785;BME280;57944;48.722;9.316;2023-09-08T11:17:55;98243.72;;;32.65;39.11
2785;BME280;57944;48.722;9.316;2023-09-08T11:20:29;98236.81;;;33.97;36.53
2785;BME280;57944;48.722;9.316;2023-09-08T11:23:00;98237.19;;;34.59;35.58
2785;BME280;57944;48.722;9.316;2023-09-08T11:25:33;98240.31;;;35.35;35.24
2785;BME280;57944;48.722;9.316;2023-09-08T11:28:05;98238.81;;;36.23;33.45
2785;BME280;57944;48.722;9.316;2023-09-08T11:30:36;98246.38;;;36.74;32.82
2785;BME280;57944;48.722;9.316;2023-09-08T11:33:14;98242.34;;;37.85;31.82
2785;BME280;57944;48.722;9.316;2023-09-08T11:35:48;98240.16;;;37.53;32.06
2785;BME280;57944;48.722;9.316;2023-09-08T11:38:25;98248.88;;;38.39;30.56
2785;BME280;57944;48.722;9.316;2023-09-08T11:40:57;98243.63;;;38.47;30.47
2785;BME280;57944;48.722;9.316;2023-09-08T11:43:28;98240.25;;;38.53;30.28
2785;BME280;57944;48.722;9.316;2023-09-08T11:46:00;98233.13;;;38.75;29.80
2785;BME280;57944;48.722;9.316;2023-09-08T11:48:32;98235.31;;;39.50;29.08
2785;BME280;57944;48.722;9.316;2023-09-08T11:51:07;98240.28;;;38.60;30.04
2785;BME280;57944;48.722;9.316;2023-09-08T11:53:38;98235.44;;;38.80;29.41
2785;BME280;57944;48.722;9.316;2023-09-08T11:56:08;98240.28;;;39.51;28.34
2785;BME280;57944;48.722;9.316;2023-09-08T11:58:39;98241.91;;;40.20;27.84
2785;BME280;57944;48.722;9.316;2023-09-08T12:01:10;98238.78;;;40.47;27.49
2785;BME280;57944;48.722;9.316;2023-09-08T12:03:51;98233.84;;;39.70;27.69
2785;BME280;57944;48.722;9.316;2023-09-08T12:06:27;98235.00;;;39.98;27.62
2785;BME280;57944;48.722;9.316;2023-09-08T12:09:01;98232.72;;;39.93;28.11
2785;BME280;57944;48.722;9.316;2023-09-08T12:11:36;98232.72;;;39.93;27.36
2785;BME280;57944;48.722;9.316;2023-09-08T12:14:11;98224.09;;;38.91;28.36
2785;BME280;57944;48.722;9.316;2023-09-08T12:16:43;98235.09;;;38.23;28.85
2785;BME280;57944;48.722;9.316;2023-09-08T12:19:29;98231.88;;;39.31;27.32
2785;BME280;57944;48.722;9.316;2023-09-08T12:22:04;98222.34;;;37.24;30.06
2785;BME280;57944;48.722;9.316;2023-09-08T12:24:56;98221.91;;;35.66;32.51
2785;BME280;57944;48.722;9.316;2023-09-08T12:27:29;98209.78;;;36.34;32.16
2785;BME280;57944;48.722;9.316;2023-09-08T12:30:00;98210.19;;;37.23;30.73
2785;BME280;57944;48.722;9.316;2023-09-08T12:32:32;98218.31;;;36.73;30.49
2785;BME280;57944;48.722;9.316;2023-09-08T12:35:04;98217.94;;;36.48;30.56
2785;BME280;57944;48.722;9.316;2023-09-08T12:37:39;98208.78;;;34.09;32.85
2785;BME280;57944;48.722;9.316;2023-09-08T12:40:11;98209.59;;;32.84;33.86
2785;BME280;57944;48.722;9.316;2023-09-08T12:42:43;98209.94;;;32.70;34.87
2785;BME280;57944;48.722;9.316;2023-09-08T12:45:25;98203.91;;;31.42;37.24
2785;BME280;57944;48.722;9.316;2023-09-08T12:47:58;98205.25;;;31.06;37.86
2785;BME280;57944;48.722;9.316;2023-09-08T12:50:31;98197.84;;;30.87;39.30
2785;BME280;57944;48.722;9.316;2023-09-08T12:53:04;98199.28;;;30.76;40.04
2785;BME280;57944;48.722;9.316;2023-09-08T12:55:35;98195.13;;;30.66;39.89
2785;BME280;57944;48.722;9.316;2023-09-08T12:58:05;98192.97;;;30.68;39.92
2785;BME280;57944;48.722;9.316;2023-09-08T13:00:36;98191.03;;;30.78;39.61
2785;BME280;57944;48.722;9.316;2023-09-08T13:03:06;98181.63;;;30.47;40.37
2785;BME280;57944;48.722;9.316;2023-09-08T13:05:37;98186.53;;;30.78;39.41
2785;BME280;57944;48.722;9.316;2023-09-08T13:08:11;98180.25;;;31.54;37.34
2785;BME280;57944;48.722;9.316;2023-09-08T13:10:43;98182.03;;;32.08;36.90
2785;BME280;57944;48.722;9.316;2023-09-08T13:13:13;98180.66;;;33.56;34.50
2785;BME280;57944;48.722;9.316;2023-09-08T13:15:44;98188.03;;;36.01;31.26
2785;BME280;57944;48.722;9.316;2023-09-08T13:18:14;98189.88;;;37.82;29.14
2785;BME280;57944;48.722;9.316;2023-09-08T13:20:45;98179.44;;;38.04;28.75
2785;BME280;57944;48.722;9.316;2023-09-08T13:23:18;98174.63;;;38.27;28.34
2785;BME280;57944;48.722;9.316;2023-09-08T13:25:49;98178.59;;;38.51;28.40
2785;BME280;57944;48.722;9.316;2023-09-08T13:28:20;98173.97;;;37.11;30.89
2785;BME280;57944;48.722;9.316;2023-09-08T13:30:50;98172.34;;;35.47;33.73
2785;BME280;57944;48.722;9.316;2023-09-08T13:33:22;98168.47;;;34.31;35.55